createdAt,value
2019-01-11T00:00:50.763Z,88.36
2019-01-11T00:03:19.815Z,88.71
2019-01-11T00:05:49.900Z,88.02
2019-01-11T00:08:20.026Z,88.34
2019-01-11T00:10:49.101Z,88.05
2019-01-11T00:13:19.155Z,86.00
2019-01-11T00:15:48.412Z,85.51
2019-01-11T00:18:17.460Z,86.95
2019-01-11T00:20:46.660Z,85.14
2019-01-11T00:25:55.699Z,87.66
2019-01-11T00:28:24.746Z,86.37
2019-01-11T00:30:53.809Z,84.67
2019-01-11T00:33:24.102Z,84.62
2019-01-11T00:35:53.170Z,85.50
2019-01-11T00:38:26.207Z,85.59
2019-01-11T00:40:55.279Z,84.29
2019-01-11T00:43:24.366Z,85.69
2019-01-11T00:45:53.420Z,85.36
2019-01-11T00:48:22.488Z,84.57
2019-01-11T00:50:51.547Z,86.33
2019-01-11T00:53:20.610Z,87.00
2019-01-11T00:55:49.680Z,88.00
2019-01-11T00:58:18.753Z,88.66
2019-01-11T01:03:24.614Z,88.29
2019-01-11T01:05:53.663Z,85.02
2019-01-11T01:08:22.748Z,85.02
2019-01-11T01:10:51.803Z,86.35
2019-01-11T01:13:20.865Z,85.90
2019-01-11T01:15:49.948Z,86.90
2019-01-11T01:18:18.992Z,86.88
2019-01-11T01:20:48.086Z,86.85
2019-01-11T01:23:17.092Z,85.97
2019-01-11T01:25:46.182Z,88.22
2019-01-11T01:28:15.262Z,86.61
2019-01-11T01:30:50.903Z,86.74
2019-01-11T01:33:19.964Z,85.77
2019-01-11T01:35:49.055Z,85.58
2019-01-11T01:38:18.110Z,85.08
2019-01-11T01:40:47.177Z,87.27
2019-01-11T01:43:16.222Z,86.28
2019-01-11T01:45:45.284Z,86.56
2019-01-11T01:48:14.331Z,85.91
2019-01-11T01:50:43.467Z,87.58
2019-01-11T01:53:12.538Z,88.12
2019-01-11T01:57:04.267Z,88.56
2019-01-11T01:59:33.309Z,89.08
2019-01-11T02:02:02.346Z,89.26
2019-01-11T02:04:31.456Z,88.79
2019-01-11T02:07:00.482Z,89.02
2019-01-11T02:09:29.548Z,87.60
2019-01-11T02:11:58.624Z,88.15
2019-01-11T02:14:28.615Z,88.87
2019-01-11T02:16:57.793Z,88.81
2019-01-11T02:19:32.753Z,88.08
2019-01-11T02:21:55.934Z,88.04
2019-01-11T02:24:25.020Z,88.91
2019-01-11T02:26:54.071Z,89.62
2019-01-11T02:29:23.134Z,89.98
2019-01-11T02:31:52.205Z,89.79
2019-01-11T02:34:22.215Z,90.05
2019-01-11T02:36:52.041Z,91.76
2019-01-11T02:39:21.271Z,91.41
2019-01-11T02:41:50.326Z,90.74
2019-01-11T02:44:19.394Z,90.81
2019-01-11T02:46:48.802Z,89.47
2019-01-11T02:49:17.843Z,88.96
2019-01-11T02:54:23.118Z,89.19
2019-01-11T02:56:52.177Z,88.58
2019-01-11T02:59:22.226Z,88.65
2019-01-11T03:01:51.278Z,89.16
2019-01-11T03:04:20.335Z,89.51
2019-01-11T03:06:49.459Z,89.81
2019-01-11T03:09:18.517Z,90.85
2019-01-11T03:14:08.924Z,91.84
2019-01-11T03:16:37.982Z,91.30
2019-01-11T03:19:07.024Z,91.25
2019-01-11T03:21:36.076Z,91.52
2019-01-11T03:24:13.725Z,91.70
2019-01-11T03:26:45.643Z,92.20
2019-01-11T03:29:14.698Z,92.36
2019-01-11T03:31:43.729Z,92.51
2019-01-11T03:34:12.784Z,93.03
2019-01-11T03:36:41.840Z,92.87
2019-01-11T03:39:10.884Z,93.36
2019-01-11T03:41:39.953Z,92.82
2019-01-11T03:44:09.036Z,92.43
2019-01-11T03:46:38.130Z,92.85
2019-01-11T03:49:08.101Z,92.61
2019-01-11T03:51:37.142Z,92.89
2019-01-11T03:54:06.202Z,93.17
2019-01-11T03:56:36.254Z,93.13
2019-01-11T03:59:06.223Z,93.03
2019-01-11T04:01:35.263Z,93.22
2019-01-11T04:04:04.325Z,93.37
2019-01-11T04:06:33.369Z,93.24
2019-01-11T04:09:03.602Z,93.33
2019-01-11T04:11:32.657Z,93.01
2019-01-11T04:14:01.706Z,92.83
2019-01-11T04:16:30.775Z,92.94
2019-01-11T04:18:59.824Z,92.47
2019-01-11T04:21:28.882Z,91.90
2019-01-11T04:23:57.997Z,91.95
2019-01-11T04:26:27.091Z,91.23
2019-01-11T04:28:56.162Z,91.67
2019-01-11T04:31:25.242Z,91.71
2019-01-11T04:33:58.127Z,91.74
2019-01-11T04:36:27.202Z,92.42
2019-01-11T04:38:59.470Z,93.16
2019-01-11T04:41:36.035Z,94.44
2019-01-11T04:44:05.697Z,95.03
2019-01-11T04:46:34.725Z,94.83
2019-01-11T04:49:03.773Z,94.26
2019-01-11T04:51:32.891Z,93.93
2019-01-11T04:54:01.947Z,93.75
2019-01-11T04:56:31.079Z,93.56
2019-01-11T04:59:02.060Z,94.35
2019-01-11T05:01:31.146Z,94.36
2019-01-11T05:06:39.419Z,94.36
2019-01-11T05:09:10.354Z,95.00
2019-01-11T05:11:39.529Z,95.77
2019-01-11T05:14:09.139Z,95.78
2019-01-11T05:19:15.841Z,95.48
2019-01-11T05:21:44.888Z,95.07
2019-01-11T05:24:13.946Z,94.59
2019-01-11T05:26:43.034Z,94.31
2019-01-11T05:29:12.065Z,93.75
2019-01-11T05:31:41.145Z,94.64
2019-01-11T05:34:10.219Z,94.98
2019-01-11T05:36:39.285Z,95.49
2019-01-11T05:39:08.363Z,96.39
2019-01-11T05:41:37.442Z,96.21
2019-01-11T05:44:06.559Z,96.41
2019-01-11T05:46:35.615Z,96.29
2019-01-11T05:49:04.662Z,96.52
2019-01-11T05:51:33.735Z,95.88
2019-01-11T05:54:03.859Z,94.14
2019-01-11T05:56:42.946Z,93.37
2019-01-11T05:59:27.533Z,93.14
2019-01-11T06:04:48.914Z,94.14
2019-01-11T06:07:20.719Z,94.54
2019-01-11T06:09:49.754Z,95.46
2019-01-11T06:12:18.897Z,95.87
2019-01-11T06:14:48.936Z,95.61
2019-01-11T06:17:17.987Z,95.26
2019-01-11T06:19:47.046Z,95.56
2019-01-11T06:24:52.873Z,95.43
2019-01-11T06:27:22.505Z,94.93
2019-01-11T06:29:51.578Z,94.67
2019-01-11T06:32:21.125Z,94.55
2019-01-11T06:34:50.420Z,94.27
2019-01-11T06:37:19.499Z,93.77
2019-01-11T06:39:49.572Z,94.54
2019-01-11T06:42:18.645Z,94.24
2019-01-11T06:44:47.698Z,93.96
2019-01-11T06:47:18.505Z,94.04
2019-01-11T06:49:46.819Z,94.51
2019-01-11T06:52:17.993Z,94.63
2019-01-11T06:54:47.032Z,94.51
2019-01-11T06:57:16.102Z,94.50
2019-01-11T06:59:45.162Z,94.43
2019-01-11T07:02:14.382Z,94.13
2019-01-11T07:04:43.414Z,94.08
2019-01-11T07:07:12.450Z,93.58
2019-01-11T07:09:41.595Z,94.19
2019-01-11T07:12:10.739Z,94.39
2019-01-11T07:14:41.004Z,94.14
2019-01-11T07:17:12.019Z,94.05
2019-01-11T07:19:41.073Z,93.98
2019-01-11T07:22:10.131Z,94.21
2019-01-11T07:24:39.187Z,93.58
2019-01-11T07:27:08.252Z,93.28
2019-01-11T07:29:37.304Z,92.81
